sensor_id;sensor_type;location;lat;lon;timestamp;temperature;humidity
24158;DHT22;12316;50.904;4.200;2023-07-13T00:02:21;16.60;99.90
24158;DHT22;12316;50.904;4.200;2023-07-13T00:04:47;16.60;99.90
24158;DHT22;12316;50.904;4.200;2023-07-13T00:07:13;16.70;99.90
24158;DHT22;12316;50.904;4.200;2023-07-13T00:09:39;16.70;99.90
24158;DHT22;12316;50.904;4.200;2023-07-13T00:12:31;16.70;99.90
24158;DHT22;12316;50.904;4.200;2023-07-13T00:14:59;16.70;99.90
24158;DHT22;12316;50.904;4.200;2023-07-13T00:17:26;16.70;99.90
24158;DHT22;12316;50.904;4.200;2023-07-13T00:19:52;16.60;99.90
24158;DHT22;12316;50.904;4.200;2023-07-13T00:22:19;16.60;99.90
24158;DHT22;12316;50.904;4.200;2023-07-13T00:24:45;16.50;99.90
24158;DHT22;12316;50.904;4.200;2023-07-13T00:27:11;16.40;99.90
24158;DHT22;12316;50.904;4.200;2023-07-13T00:29:37;16.50;99.90
24158;DHT22;12316;50.904;4.200;2023-07-13T00:32:04;16.40;99.90
24158;DHT22;12316;50.904;4.200;2023-07-13T00:34:30;16.40;99.90
24158;DHT22;12316;50.904;4.200;2023-07-13T00:36:56;16.40;99.90
24158;DHT22;12316;50.904;4.200;2023-07-13T00:39:22;16.20;99.90
24158;DHT22;12316;50.904;4.200;2023-07-13T00:41:48;16.40;99.90
24158;DHT22;12316;50.904;4.200;2023-07-13T00:44:15;16.40;99.90
24158;DHT22;12316;50.904;4.200;2023-07-13T00:46:40;16.40;99.90
24158;DHT22;12316;50.904;4.200;2023-07-13T00:49:08;16.40;99.90
24158;DHT22;12316;50.904;4.200;2023-07-13T00:51:48;16.50;99.90
24158;DHT22;12316;50.904;4.200;2023-07-13T00:54:21;16.70;99.90
24158;DHT22;12316;50.904;4.200;2023-07-13T00:56:51;16.80;99.90
24158;DHT22;12316;50.904;4.200;2023-07-13T00:59:18;16.70;99.90
24158;DHT22;12316;50.904;4.200;2023-07-13T01:01:45;16.60;99.90
24158;DHT22;12316;50.904;4.200;2023-07-13T01:04:11;16.40;99.90
24158;DHT22;12316;50.904;4.200;2023-07-13T01:06:37;16.30;99.90
24158;DHT22;12316;50.904;4.200;2023-07-13T01:09:05;16.30;99.90
24158;DHT22;12316;50.904;4.200;2023-07-13T01:11:32;16.30;99.90
24158;DHT22;12316;50.904;4.200;2023-07-13T01:13:57;16.20;99.90
24158;DHT22;12316;50.904;4.200;2023-07-13T01:16:33;16.10;99.90
24158;DHT22;12316;50.904;4.200;2023-07-13T01:18:59;16.10;99.90
24158;DHT22;12316;50.904;4.200;2023-07-13T01:21:28;16.10;99.90
24158;DHT22;12316;50.904;4.200;2023-07-13T01:23:54;16.10;99.90
24158;DHT22;12316;50.904;4.200;2023-07-13T01:26:20;16.10;99.90
24158;DHT22;12316;50.904;4.200;2023-07-13T01:28:45;16.10;99.90
24158;DHT22;12316;50.904;4.200;2023-07-13T01:31:12;16.10;99.90
24158;DHT22;12316;50.904;4.200;2023-07-13T01:33:39;16.00;99.90
24158;DHT22;12316;50.904;4.200;2023-07-13T01:36:09;15.90;99.90
24158;DHT22;12316;50.904;4.200;2023-07-13T01:38:36;15.90;99.90
24158;DHT22;12316;50.904;4.200;2023-07-13T01:41:02;15.80;99.90
24158;DHT22;12316;50.904;4.200;2023-07-13T01:43:28;15.80;99.90
24158;DHT22;12316;50.904;4.200;2023-07-13T01:45:54;15.70;99.90
24158;DHT22;12316;50.904;4.200;2023-07-13T01:48:20;15.60;99.90
24158;DHT22;12316;50.904;4.200;2023-07-13T01:50:46;15.60;99.90
24158;DHT22;12316;50.904;4.200;2023-07-13T01:53:12;15.80;99.90
24158;DHT22;12316;50.904;4.200;2023-07-13T01:55:38;15.80;99.90
24158;DHT22;12316;50.904;4.200;2023-07-13T01:58:04;15.80;99.90
24158;DHT22;12316;50.904;4.200;2023-07-13T02:00:30;15.70;99.90
24158;DHT22;12316;50.904;4.200;2023-07-13T02:02:56;15.60;99.90
24158;DHT22;12316;50.904;4.200;2023-07-13T02:05:22;15.60;99.90
24158;DHT22;12316;50.904;4.200;2023-07-13T02:07:48;15.50;99.90
24158;DHT22;12316;50.904;4.200;2023-07-13T02:10:14;15.50;99.90
24158;DHT22;12316;50.904;4.200;2023-07-13T02:12:41;15.40;99.90
24158;DHT22;12316;50.904;4.200;2023-07-13T02:15:07;15.40;99.90
24158;DHT22;12316;50.904;4.200;2023-07-13T02:17:34;15.30;99.90
24158;DHT22;12316;50.904;4.200;2023-07-13T02:19:59;15.30;99.90
24158;DHT22;12316;50.904;4.200;2023-07-13T02:22:25;15.30;99.90
24158;DHT22;12316;50.904;4.200;2023-07-13T02:24:51;15.40;99.90
24158;DHT22;12316;50.904;4.200;2023-07-13T02:27:16;15.40;99.90
24158;DHT22;12316;50.904;4.200;2023-07-13T02:29:42;15.40;99.90
24158;DHT22;12316;50.904;4.200;2023-07-13T02:32:08;15.30;99.90
24158;DHT22;12316;50.904;4.200;2023-07-13T02:34:34;15.30;99.90
24158;DHT22;12316;50.904;4.200;2023-07-13T02:36:59;15.30;99.90
24158;DHT22;12316;50.904;4.200;2023-07-13T02:39:25;15.20;99.90
24158;DHT22;12316;50.904;4.200;2023-07-13T02:41:51;15.30;99.90
24158;DHT22;12316;50.904;4.200;2023-07-13T02:44:16;15.20;99.90
24158;DHT22;12316;50.904;4.200;2023-07-13T02:46:42;15.10;99.90
24158;DHT22;12316;50.904;4.200;2023-07-13T02:49:07;15.10;99.90
24158;DHT22;12316;50.904;4.200;2023-07-13T02:51:33;15.10;99.90
24158;DHT22;12316;50.904;4.200;2023-07-13T02:54:00;15.20;99.90
24158;DHT22;12316;50.904;4.200;2023-07-13T02:56:28;15.20;99.90
24158;DHT22;12316;50.904;4.200;2023-07-13T02:58:54;15.20;99.90
24158;DHT22;12316;50.904;4.200;2023-07-13T03:01:21;15.20;99.90
24158;DHT22;12316;50.904;4.200;2023-07-13T03:03:51;15.00;99.90
24158;DHT22;12316;50.904;4.200;2023-07-13T03:06:17;15.00;99.90
24158;DHT22;12316;50.904;4.200;2023-07-13T03:08:43;15.00;99.90
24158;DHT22;12316;50.904;4.200;2023-07-13T03:11:12;15.10;99.90
24158;DHT22;12316;50.904;4.200;2023-07-13T03:13:39;15.00;99.90
24158;DHT22;12316;50.904;4.200;2023-07-13T03:16:05;15.00;99.90
24158;DHT22;12316;50.904;4.200;2023-07-13T03:18:31;15.10;99.90
24158;DHT22;12316;50.904;4.200;2023-07-13T03:20:57;15.00;99.90
24158;DHT22;12316;50.904;4.200;2023-07-13T03:23:24;15.00;99.90
24158;DHT22;12316;50.904;4.200;2023-07-13T03:25:50;15.00;99.90
24158;DHT22;12316;50.904;4.200;2023-07-13T03:28:16;14.90;99.90
24158;DHT22;12316;50.904;4.200;2023-07-13T03:30:41;15.00;99.90
24158;DHT22;12316;50.904;4.200;2023-07-13T03:33:08;15.10;99.90
24158;DHT22;12316;50.904;4.200;2023-07-13T03:35:34;15.10;99.90
24158;DHT22;12316;50.904;4.200;2023-07-13T03:38:00;15.10;99.90
24158;DHT22;12316;50.904;4.200;2023-07-13T03:40:27;15.10;99.90
24158;DHT22;12316;50.904;4.200;2023-07-13T03:42:52;15.10;99.90
24158;DHT22;12316;50.904;4.200;2023-07-13T03:45:18;15.10;99.90
24158;DHT22;12316;50.904;4.200;2023-07-13T03:47:44;15.20;99.90
24158;DHT22;12316;50.904;4.200;2023-07-13T03:50:10;15.30;99.90
24158;DHT22;12316;50.904;4.200;2023-07-13T03:52:35;15.30;99.90
24158;DHT22;12316;50.904;4.200;2023-07-13T03:55:01;15.40;99.90
24158;DHT22;12316;50.904;4.200;2023-07-13T03:57:27;15.50;99.90
24158;DHT22;12316;50.904;4.200;2023-07-13T03:59:53;15.60;99.90
24158;DHT22;12316;50.904;4.200;2023-07-13T04:02:18;15.70;99.90
24158;DHT22;12316;50.904;4.200;2023-07-13T04:04:44;15.80;99.90
24158;DHT22;12316;50.904;4.200;2023-07-13T04:07:10;15.80;99.90
24158;DHT22;12316;50.904;4.200;2023-07-13T04:09:36;15.90;99.90
24158;DHT22;12316;50.904;4.200;2023-07-13T04:12:01;15.90;99.90
24158;DHT22;12316;50.904;4.200;2023-07-13T04:14:27;15.80;99.90
24158;DHT22;12316;50.904;4.200;2023-07-13T04:16:53;15.90;99.90
24158;DHT22;12316;50.904;4.200;2023-07-13T04:19:20;15.90;99.90
24158;DHT22;12316;50.904;4.200;2023-07-13T04:21:45;16.00;99.90
24158;DHT22;12316;50.904;4.200;2023-07-13T04:24:11;16.00;99.90
24158;DHT22;12316;50.904;4.200;2023-07-13T04:26:37;16.20;99.90
24158;DHT22;12316;50.904;4.200;2023-07-13T04:29:04;16.20;99.90
24158;DHT22;12316;50.904;4.200;2023-07-13T04:31:30;16.20;99.90
24158;DHT22;12316;50.904;4.200;2023-07-13T04:33:56;16.20;99.90
24158;DHT22;12316;50.904;4.200;2023-07-13T04:36:22;16.30;99.90
24158;DHT22;12316;50.904;4.200;2023-07-13T04:38:48;16.30;99.90
24158;DHT22;12316;50.904;4.200;2023-07-13T04:41:14;16.40;99.90
24158;DHT22;12316;50.904;4.200;2023-07-13T04:43:40;16.50;99.90
24158;DHT22;12316;50.904;4.200;2023-07-13T04:46:08;16.50;99.90
24158;DHT22;12316;50.904;4.200;2023-07-13T04:48:35;16.50;99.90
24158;DHT22;12316;50.904;4.200;2023-07-13T04:51:01;16.50;99.90
24158;DHT22;12316;50.904;4.200;2023-07-13T04:53:27;16.60;99.90
24158;DHT22;12316;50.904;4.200;2023-07-13T04:55:53;16.70;99.90
24158;DHT22;12316;50.904;4.200;2023-07-13T04:58:19;16.80;99.90
24158;DHT22;12316;50.904;4.200;2023-07-13T05:00:45;16.80;99.90
24158;DHT22;12316;50.904;4.200;2023-07-13T05:03:10;16.80;99.90
24158;DHT22;12316;50.904;4.200;2023-07-13T05:05:36;16.90;99.90
24158;DHT22;12316;50.904;4.200;2023-07-13T05:08:02;16.90;99.90
24158;DHT22;12316;50.904;4.200;2023-07-13T05:10:27;16.90;99.90
24158;DHT22;12316;50.904;4.200;2023-07-13T05:12:53;16.90;99.90
24158;DHT22;12316;50.904;4.200;2023-07-13T05:15:21;17.00;99.90
24158;DHT22;12316;50.904;4.200;2023-07-13T05:17:50;17.00;99.90
24158;DHT22;12316;50.904;4.200;2023-07-13T05:20:17;17.10;99.90
24158;DHT22;12316;50.904;4.200;2023-07-13T05:22:43;17.10;99.90
24158;DHT22;12316;50.904;4.200;2023-07-13T05:25:09;17.30;99.90
24158;DHT22;12316;50.904;4.200;2023-07-13T05:27:35;17.20;99.90
24158;DHT22;12316;50.904;4.200;2023-07-13T05:30:02;17.40;99.90
24158;DHT22;12316;50.904;4.200;2023-07-13T05:32:28;17.50;99.90
24158;DHT22;12316;50.904;4.200;2023-07-13T05:34:54;17.70;99.90
24158;DHT22;12316;50.904;4.200;2023-07-13T05:37:20;18.30;99.90
24158;DHT22;12316;50.904;4.200;2023-07-13T05:39:45;18.20;99.90
24158;DHT22;12316;50.904;4.200;2023-07-13T05:42:11;18.10;99.90
24158;DHT22;12316;50.904;4.200;2023-07-13T05:44:36;18.00;99.90
24158;DHT22;12316;50.904;4.200;2023-07-13T05:47:02;18.00;99.90
24158;DHT22;12316;50.904;4.200;2023-07-13T05:49:29;17.80;99.90
24158;DHT22;12316;50.904;4.200;2023-07-13T05:51:55;17.80;99.90
24158;DHT22;12316;50.904;4.200;2023-07-13T05:54:21;17.90;99.90
24158;DHT22;12316;50.904;4.200;2023-07-13T05:56:47;17.90;99.90
24158;DHT22;12316;50.904;4.200;2023-07-13T05:59:12;17.70;99.90
24158;DHT22;12316;50.904;4.200;2023-07-13T06:01:38;17.70;99.90
24158;DHT22;12316;50.904;4.200;2023-07-13T06:04:04;17.70;99.90
24158;DHT22;12316;50.904;4.200;2023-07-13T06:06:30;17.80;99.90
24158;DHT22;12316;50.904;4.200;2023-07-13T06:08:56;17.80;99.90
24158;DHT22;12316;50.904;4.200;2023-07-13T06:11:24;18.00;99.90
24158;DHT22;12316;50.904;4.200;2023-07-13T06:13:50;18.10;99.90
24158;DHT22;12316;50.904;4.200;2023-07-13T06:16:16;18.30;99.90
24158;DHT22;12316;50.904;4.200;2023-07-13T06:18:43;18.10;99.90
24158;DHT22;12316;50.904;4.200;2023-07-13T06:21:17;18.40;99.90
24158;DHT22;12316;50.904;4.200;2023-07-13T06:23:44;18.50;99.90
24158;DHT22;12316;50.904;4.200;2023-07-13T06:26:10;18.50;99.90
24158;DHT22;12316;50.904;4.200;2023-07-13T06:28:37;18.50;99.90
24158;DHT22;12316;50.904;4.200;2023-07-13T06:31:08;18.60;99.90
24158;DHT22;12316;50.904;4.200;2023-07-13T06:33:34;18.50;99.90
24158;DHT22;12316;50.904;4.200;2023-07-13T06:36:02;18.60;99.90
24158;DHT22;12316;50.904;4.200;2023-07-13T06:38:28;18.70;99.90
24158;DHT22;12316;50.904;4.200;2023-07-13T06:40:53;18.90;99.90
24158;DHT22;12316;50.904;4.200;2023-07-13T06:43:19;18.80;99.90
24158;DHT22;12316;50.904;4.200;2023-07-13T06:45:46;19.00;99.90
24158;DHT22;12316;50.904;4.200;2023-07-13T06:48:14;19.20;99.90
24158;DHT22;12316;50.904;4.200;2023-07-13T06:50:42;19.40;99.90
24158;DHT22;12316;50.904;4.200;2023-07-13T06:53:08;19.70;99.90
24158;DHT22;12316;50.904;4.200;2023-07-13T06:55:34;19.80;99.90
24158;DHT22;12316;50.904;4.200;2023-07-13T06:58:00;20.00;99.90
24158;DHT22;12316;50.904;4.200;2023-07-13T07:00:25;20.20;99.90
24158;DHT22;12316;50.904;4.200;2023-07-13T07:02:51;20.30;99.90
24158;DHT22;12316;50.904;4.200;2023-07-13T07:05:17;20.10;99.90
24158;DHT22;12316;50.904;4.200;2023-07-13T07:07:43;19.90;99.90
24158;DHT22;12316;50.904;4.200;2023-07-13T07:10:08;20.10;99.90
24158;DHT22;12316;50.904;4.200;2023-07-13T07:12:34;20.20;99.90
24158;DHT22;12316;50.904;4.200;2023-07-13T07:15:00;20.50;99.90
24158;DHT22;12316;50.904;4.200;2023-07-13T07:17:25;20.70;99.90
24158;DHT22;12316;50.904;4.200;2023-07-13T07:19:52;20.70;99.90
24158;DHT22;12316;50.904;4.200;2023-07-13T07:22:20;20.80;99.90
24158;DHT22;12316;50.904;4.200;2023-07-13T07:24:45;20.70;99.90
24158;DHT22;12316;50.904;4.200;2023-07-13T07:27:11;20.70;99.90
24158;DHT22;12316;50.904;4.200;2023-07-13T07:29:36;20.70;99.90
24158;DHT22;12316;50.904;4.200;2023-07-13T07:32:02;20.60;99.90
24158;DHT22;12316;50.904;4.200;2023-07-13T07:34:28;20.60;99.90
24158;DHT22;12316;50.904;4.200;2023-07-13T07:36:54;20.70;99.90
24158;DHT22;12316;50.904;4.200;2023-07-13T07:39:19;21.00;99.90
24158;DHT22;12316;50.904;4.200;2023-07-13T07:41:45;21.20;99.90
24158;DHT22;12316;50.904;4.200;2023-07-13T07:44:11;21.00;99.90
24158;DHT22;12316;50.904;4.200;2023-07-13T07:46:36;21.00;99.90
24158;DHT22;12316;50.904;4.200;2023-07-13T07:49:02;21.30;99.90
24158;DHT22;12316;50.904;4.200;2023-07-13T07:51:28;21.40;99.90
24158;DHT22;12316;50.904;4.200;2023-07-13T07:53:54;21.60;99.90
24158;DHT22;12316;50.904;4.200;2023-07-13T07:56:19;21.60;99.90
24158;DHT22;12316;50.904;4.200;2023-07-13T07:58:45;21.70;99.90
24158;DHT22;12316;50.904;4.200;2023-07-13T08:01:10;21.70;99.90
24158;DHT22;12316;50.904;4.200;2023-07-13T08:03:36;21.70;99.90
24158;DHT22;12316;50.904;4.200;2023-07-13T08:06:02;21.70;99.90
24158;DHT22;12316;50.904;4.200;2023-07-13T08:08:27;21.90;99.90
24158;DHT22;12316;50.904;4.200;2023-07-13T08:10:53;22.10;99.90
24158;DHT22;12316;50.904;4.200;2023-07-13T08:13:19;22.30;99.90
24158;DHT22;12316;50.904;4.200;2023-07-13T08:15:46;22.30;99.90
24158;DHT22;12316;50.904;4.200;2023-07-13T08:18:11;22.10;99.90
24158;DHT22;12316;50.904;4.200;2023-07-13T08:20:40;22.00;99.90
24158;DHT22;12316;50.904;4.200;2023-07-13T08:23:06;22.20;99.90
24158;DHT22;12316;50.904;4.200;2023-07-13T08:25:32;22.40;99.90
24158;DHT22;12316;50.904;4.200;2023-07-13T08:27:57;22.20;99.90
24158;DHT22;12316;50.904;4.200;2023-07-13T08:30:23;22.30;99.90
24158;DHT22;12316;50.904;4.200;2023-07-13T08:32:49;22.50;99.90
24158;DHT22;12316;50.904;4.200;2023-07-13T08:35:15;22.70;99.90
24158;DHT22;12316;50.904;4.200;2023-07-13T08:37:41;22.80;99.90
24158;DHT22;12316;50.904;4.200;2023-07-13T08:40:10;22.80;99.90
24158;DHT22;12316;50.904;4.200;2023-07-13T08:42:41;23.00;99.90
24158;DHT22;12316;50.904;4.200;2023-07-13T08:45:17;22.70;99.90
24158;DHT22;12316;50.904;4.200;2023-07-13T08:48:37;22.70;99.90
24158;DHT22;12316;50.904;4.200;2023-07-13T08:50:51;22.60;99.90
24158;DHT22;12316;50.904;4.200;2023-07-13T08:53:21;22.80;99.90
24158;DHT22;12316;50.904;4.200;2023-07-13T08:55:58;22.70;99.90
24158;DHT22;12316;50.904;4.200;2023-07-13T08:58:25;22.80;99.90
24158;DHT22;12316;50.904;4.200;2023-07-13T09:03:25;22.90;99.90
24158;DHT22;12316;50.904;4.200;2023-07-13T09:05:57;22.90;99.90
24158;DHT22;12316;50.904;4.200;2023-07-13T09:08:50;22.90;99.90
24158;DHT22;12316;50.904;4.200;2023-07-13T09:14:42;23.00;99.90
24158;DHT22;12316;50.904;4.200;2023-07-13T09:17:35;23.10;99.90
24158;DHT22;12316;50.904;4.200;2023-07-13T09:20:31;23.20;99.90
24158;DHT22;12316;50.904;4.200;2023-07-13T09:22:59;23.30;99.90
24158;DHT22;12316;50.904;4.200;2023-07-13T09:25:35;23.50;99.90
24158;DHT22;12316;50.904;4.200;2023-07-13T09:28:25;23.60;99.90
24158;DHT22;12316;50.904;4.200;2023-07-13T09:33:23;23.50;99.90
24158;DHT22;12316;50.904;4.200;2023-07-13T09:35:49;23.70;99.90
24158;DHT22;12316;50.904;4.200;2023-07-13T09:38:19;24.10;99.90
24158;DHT22;12316;50.904;4.200;2023-07-13T09:43:25;24.30;99.90
24158;DHT22;12316;50.904;4.200;2023-07-13T09:45:50;24.50;99.90
24158;DHT22;12316;50.904;4.200;2023-07-13T09:48:17;24.30;99.90
24158;DHT22;12316;50.904;4.200;2023-07-13T09:50:44;24.00;99.90
24158;DHT22;12316;50.904;4.200;2023-07-13T09:53:18;23.80;99.90
24158;DHT22;12316;50.904;4.200;2023-07-13T09:55:46;23.70;99.90
24158;DHT22;12316;50.904;4.200;2023-07-13T10:00:43;23.50;99.90
24158;DHT22;12316;50.904;4.200;2023-07-13T10:03:25;23.50;99.90
24158;DHT22;12316;50.904;4.200;2023-07-13T10:05:52;23.60;99.90
24158;DHT22;12316;50.904;4.200;2023-07-13T10:08:24;24.00;99.90
24158;DHT22;12316;50.904;4.200;2023-07-13T10:11:00;24.10;99.90
24158;DHT22;12316;50.904;4.200;2023-07-13T10:14:02;23.70;99.90
24158;DHT22;12316;50.904;4.200;2023-07-13T10:16:27;23.50;99.90
24158;DHT22;12316;50.904;4.200;2023-07-13T10:19:00;23.40;99.90
24158;DHT22;12316;50.904;4.200;2023-07-13T10:21:47;23.40;99.90
24158;DHT22;12316;50.904;4.200;2023-07-13T10:24:19;23.50;99.90
24158;DHT22;12316;50.904;4.200;2023-07-13T10:29:44;23.30;99.90
24158;DHT22;12316;50.904;4.200;2023-07-13T10:32:12;23.10;99.90
24158;DHT22;12316;50.904;4.200;2023-07-13T10:34:40;23.10;99.90
24158;DHT22;12316;50.904;4.200;2023-07-13T10:37:27;22.90;99.90
24158;DHT22;12316;50.904;4.200;2023-07-13T10:39:56;22.80;99.90
24158;DHT22;12316;50.904;4.200;2023-07-13T10:42:36;23.00;99.90
24158;DHT22;12316;50.904;4.200;2023-07-13T10:45:15;23.10;99.90
24158;DHT22;12316;50.904;4.200;2023-07-13T10:47:43;23.00;99.90
24158;DHT22;12316;50.904;4.200;2023-07-13T10:50:17;23.20;99.90
24158;DHT22;12316;50.904;4.200;2023-07-13T10:52:51;23.40;99.90
24158;DHT22;12316;50.904;4.200;2023-07-13T10:58:31;23.50;99.90
24158;DHT22;12316;50.904;4.200;2023-07-13T11:01:07;23.70;99.90
24158;DHT22;12316;50.904;4.200;2023-07-13T11:03:35;23.90;99.90
24158;DHT22;12316;50.904;4.200;2023-07-13T11:08:55;24.60;99.90
24158;DHT22;12316;50.904;4.200;2023-07-13T11:18:49;24.20;99.90
24158;DHT22;12316;50.904;4.200;2023-07-13T11:21:20;24.20;99.90
24158;DHT22;12316;50.904;4.200;2023-07-13T11:24:01;24.20;99.90
24158;DHT22;12316;50.904;4.200;2023-07-13T11:31:51;23.50;99.90
24158;DHT22;12316;50.904;4.200;2023-07-13T11:34:23;23.60;99.90
24158;DHT22;12316;50.904;4.200;2023-07-13T11:36:50;23.50;99.90
24158;DHT22;12316;50.904;4.200;2023-07-13T11:39:24;23.40;99.90
24158;DHT22;12316;50.904;4.200;2023-07-13T11:41:58;23.10;99.90
24158;DHT22;12316;50.904;4.200;2023-07-13T11:44:26;23.00;99.90
24158;DHT22;12316;50.904;4.200;2023-07-13T11:46:54;23.10;99.90
24158;DHT22;12316;50.904;4.200;2023-07-13T11:49:22;23.00;99.90
24158;DHT22;12316;50.904;4.200;2023-07-13T11:51:48;23.20;99.90
24158;DHT22;12316;50.904;4.200;2023-07-13T11:54:32;23.20;99.90
24158;DHT22;12316;50.904;4.200;2023-07-13T11:57:06;23.10;99.90
24158;DHT22;12316;50.904;4.200;2023-07-13T11:59:40;23.10;99.90
24158;DHT22;12316;50.904;4.200;2023-07-13T12:02:32;23.10;99.90
24158;DHT22;12316;50.904;4.200;2023-07-13T12:05:00;22.90;99.90
24158;DHT22;12316;50.904;4.200;2023-07-13T12:07:29;22.50;99.90
24158;DHT22;12316;50.904;4.200;2023-07-13T12:12:29;21.90;99.90
24158;DHT22;12316;50.904;4.200;2023-07-13T12:14:55;22.00;99.90
24158;DHT22;12316;50.904;4.200;2023-07-13T12:17:23;21.80;99.90
24158;DHT22;12316;50.904;4.200;2023-07-13T12:19:51;22.10;99.90
24158;DHT22;12316;50.904;4.200;2023-07-13T12:22:19;22.20;99.90
24158;DHT22;12316;50.904;4.200;2023-07-13T12:24:46;22.50;99.90
24158;DHT22;12316;50.904;4.200;2023-07-13T12:27:21;22.70;99.90
24158;DHT22;12316;50.904;4.200;2023-07-13T12:33:02;22.80;99.90
24158;DHT22;12316;50.904;4.200;2023-07-13T12:35:31;22.80;99.90
24158;DHT22;12316;50.904;4.200;2023-07-13T12:38:00;22.70;99.90
24158;DHT22;12316;50.904;4.200;2023-07-13T12:40:33;22.50;99.90
24158;DHT22;12316;50.904;4.200;2023-07-13T12:43:01;22.50;99.90
24158;DHT22;12316;50.904;4.200;2023-07-13T12:45:30;22.40;99.90
24158;DHT22;12316;50.904;4.200;2023-07-13T12:48:04;22.10;99.90
24158;DHT22;12316;50.904;4.200;2023-07-13T12:50:39;22.40;99.90
24158;DHT22;12316;50.904;4.200;2023-07-13T12:53:13;22.50;99.90
24158;DHT22;12316;50.904;4.200;2023-07-13T12:55:50;22.70;99.90
24158;DHT22;12316;50.904;4.200;2023-07-13T13:00:51;23.00;99.90
24158;DHT22;12316;50.904;4.200;2023-07-13T13:03:35;23.20;99.90
24158;DHT22;12316;50.904;4.200;2023-07-13T13:06:18;23.20;99.90
24158;DHT22;12316;50.904;4.200;2023-07-13T13:08:49;23.00;99.90
24158;DHT22;12316;50.904;4.200;2023-07-13T13:11:16;22.80;99.90
24158;DHT22;12316;50.904;4.200;2023-07-13T13:13:42;22.60;99.90
24158;DHT22;12316;50.904;4.200;2023-07-13T13:16:12;22.70;99.90
24158;DHT22;12316;50.904;4.200;2023-07-13T13:18:39;22.70;99.90
24158;DHT22;12316;50.904;4.200;2023-07-13T13:21:05;22.70;99.90
24158;DHT22;12316;50.904;4.200;2023-07-13T13:23:31;23.10;99.90
24158;DHT22;12316;50.904;4.200;2023-07-13T13:25:58;23.50;99.90
24158;DHT22;12316;50.904;4.200;2023-07-13T13:28:24;23.90;99.90
24158;DHT22;12316;50.904;4.200;2023-07-13T13:30:50;24.20;99.90
24158;DHT22;12316;50.904;4.200;2023-07-13T13:33:20;24.30;99.90
24158;DHT22;12316;50.904;4.200;2023-07-13T13:35:47;24.50;99.90
24158;DHT22;12316;50.904;4.200;2023-07-13T13:38:26;24.90;99.90
24158;DHT22;12316;50.904;4.200;2023-07-13T13:40:52;25.30;99.90
24158;DHT22;12316;50.904;4.200;2023-07-13T13:43:21;25.60;99.90
24158;DHT22;12316;50.904;4.200;2023-07-13T13:45:52;25.60;99.90
24158;DHT22;12316;50.904;4.200;2023-07-13T13:48:21;25.80;99.90
24158;DHT22;12316;50.904;4.200;2023-07-13T13:50:56;25.80;99.90
24158;DHT22;12316;50.904;4.200;2023-07-13T13:53:21;25.70;99.90
24158;DHT22;12316;50.904;4.200;2023-07-13T13:55:52;25.30;99.90
24158;DHT22;12316;50.904;4.200;2023-07-13T13:58:18;25.20;99.90
24158;DHT22;12316;50.904;4.200;2023-07-13T14:00:45;25.20;99.90
24158;DHT22;12316;50.904;4.200;2023-07-13T14:03:19;25.10;99.90
24158;DHT22;12316;50.904;4.200;2023-07-13T14:05:45;25.00;99.90
24158;DHT22;12316;50.904;4.200;2023-07-13T14:08:19;25.30;99.90
24158;DHT22;12316;50.904;4.200;2023-07-13T14:10:51;25.70;99.90
24158;DHT22;12316;50.904;4.200;2023-07-13T14:13:25;26.10;99.90
24158;DHT22;12316;50.904;4.200;2023-07-13T14:15:53;26.20;99.90
24158;DHT22;12316;50.904;4.200;2023-07-13T14:18:19;26.20;99.90
24158;DHT22;12316;50.904;4.200;2023-07-13T14:20:46;26.40;99.90
24158;DHT22;12316;50.904;4.200;2023-07-13T14:23:13;26.40;99.40
24158;DHT22;12316;50.904;4.200;2023-07-13T14:25:39;26.50;99.90
24158;DHT22;12316;50.904;4.200;2023-07-13T14:30:48;26.50;99.10
24158;DHT22;12316;50.904;4.200;2023-07-13T14:33:14;26.50;99.00
24158;DHT22;12316;50.904;4.200;2023-07-13T14:35:39;26.30;99.90
24158;DHT22;12316;50.904;4.200;2023-07-13T14:38:10;26.60;99.90
24158;DHT22;12316;50.904;4.200;2023-07-13T14:40:37;26.50;99.70
24158;DHT22;12316;50.904;4.200;2023-07-13T14:43:03;26.40;99.70
24158;DHT22;12316;50.904;4.200;2023-07-13T14:45:30;26.40;99.70
24158;DHT22;12316;50.904;4.200;2023-07-13T14:47:56;26.50;99.30
24158;DHT22;12316;50.904;4.200;2023-07-13T14:50:31;26.50;99.20
24158;DHT22;12316;50.904;4.200;2023-07-13T14:52:57;26.70;99.00
24158;DHT22;12316;50.904;4.200;2023-07-13T14:55:37;26.70;98.50
24158;DHT22;12316;50.904;4.200;2023-07-13T14:58:02;26.80;98.70
24158;DHT22;12316;50.904;4.200;2023-07-13T15:00:28;26.90;97.90
24158;DHT22;12316;50.904;4.200;2023-07-13T15:02:57;26.80;97.80
24158;DHT22;12316;50.904;4.200;2023-07-13T15:05:29;26.90;98.00
24158;DHT22;12316;50.904;4.200;2023-07-13T15:07:57;27.10;96.50
24158;DHT22;12316;50.904;4.200;2023-07-13T15:10:25;27.10;96.30
24158;DHT22;12316;50.904;4.200;2023-07-13T15:12:52;26.80;93.70
24158;DHT22;12316;50.904;4.200;2023-07-13T15:15:18;26.60;94.00
24158;DHT22;12316;50.904;4.200;2023-07-13T15:17:47;26.60;93.90
24158;DHT22;12316;50.904;4.200;2023-07-13T15:20:30;26.30;92.90
24158;DHT22;12316;50.904;4.200;2023-07-13T15:22:56;26.00;93.00
24158;DHT22;12316;50.904;4.200;2023-07-13T15:25:24;26.00;94.80
24158;DHT22;12316;50.904;4.200;2023-07-13T15:27:52;26.00;93.90
24158;DHT22;12316;50.904;4.200;2023-07-13T15:30:18;25.70;92.70
24158;DHT22;12316;50.904;4.200;2023-07-13T15:32:44;25.60;93.30
24158;DHT22;12316;50.904;4.200;2023-07-13T15:35:15;25.40;93.00
24158;DHT22;12316;50.904;4.200;2023-07-13T15:37:41;25.40;92.70
24158;DHT22;12316;50.904;4.200;2023-07-13T15:40:08;25.50;92.70
24158;DHT22;12316;50.904;4.200;2023-07-13T15:42:34;25.50;92.50
24158;DHT22;12316;50.904;4.200;2023-07-13T15:45:01;25.60;92.80
24158;DHT22;12316;50.904;4.200;2023-07-13T15:47:27;25.70;93.40
24158;DHT22;12316;50.904;4.200;2023-07-13T15:49:53;25.90;92.90
24158;DHT22;12316;50.904;4.200;2023-07-13T15:52:22;26.10;92.40
24158;DHT22;12316;50.904;4.200;2023-07-13T15:54:49;26.20;92.10
24158;DHT22;12316;50.904;4.200;2023-07-13T15:57:16;26.20;91.50
24158;DHT22;12316;50.904;4.200;2023-07-13T15:59:42;26.30;92.10
24158;DHT22;12316;50.904;4.200;2023-07-13T16:02:18;26.40;92.00
24158;DHT22;12316;50.904;4.200;2023-07-13T16:04:45;26.50;91.90
24158;DHT22;12316;50.904;4.200;2023-07-13T16:07:11;26.70;91.10
24158;DHT22;12316;50.904;4.200;2023-07-13T16:09:38;26.40;91.10
24158;DHT22;12316;50.904;4.200;2023-07-13T16:12:12;26.10;91.00
24158;DHT22;12316;50.904;4.200;2023-07-13T16:14:39;26.00;91.60
24158;DHT22;12316;50.904;4.200;2023-07-13T16:17:08;25.80;91.20
24158;DHT22;12316;50.904;4.200;2023-07-13T16:19:34;25.80;91.90
24158;DHT22;12316;50.904;4.200;2023-07-13T16:22:00;25.80;91.30
24158;DHT22;12316;50.904;4.200;2023-07-13T16:24:26;26.00;92.00